This is the latest recevied weather packets stored in our database for station/object 5B4APJ-13. If no packets are shown the sender has not sent any weather packets the latest 10 day(s).
| Time | Temp. | Humidity | Pressure | Rain* | Wind** | Luminosity | Snow |
|---|---|---|---|---|---|---|---|
| 1777488131 | 16.11° C | 62% | 1014.4 hPa | 0 mm | 0 m/s | 0 W/m² | - |
| 1777487828 | 16.11° C | 63% | 1014.4 hPa | 0 mm | 0 m/s | 0 W/m² | - |
| 1777487528 | 16.67° C | 61% | 1014.4 hPa | 0 mm | 0 m/s | 0 W/m² | - |
| 1777487228 | 16.67° C | 62% | 1014.5 hPa | 0 mm | 0 m/s | 0 W/m² | - |
| 1777486928 | 16.67° C | 63% | 1014.2 hPa | 0 mm | 0.45 m/s, 119° | 0 W/m² | - |
| 1777486628 | 17.78° C | 59% | 1014.3 hPa | 0 mm | 0.45 m/s, 187° | 0 W/m² | - |
| 1777486328 | 17.78° C | 55% | 1014.1 hPa | 0 mm | 0.45 m/s, 257° | 0 W/m² | - |
| 1777486028 | 17.78° C | 55% | 1014.1 hPa | 0 mm | 0.89 m/s, 258° | 0 W/m² | - |
| 1777485728 | 18.33° C | 53% | 1014.2 hPa | 0 mm | 1.34 m/s, 249° | 0 W/m² | - |
| 1777485428 | 17.78° C | 55% | 1014.3 hPa | 0 mm | 0.89 m/s, 254° | 0 W/m² | - |
| 1777485129 | 17.78° C | 67% | 1014.2 hPa | 0 mm | 0.45 m/s, 110° | 0 W/m² | - |
| 1777484829 | 17.78° C | 66% | 1014.2 hPa | 0 mm | 0 m/s | 0 W/m² | - |
| 1777484529 | 18.33° C | 63% | 1014.3 hPa | 0 mm | 0.45 m/s, 294° | 0 W/m² | - |
| 1777484229 | 18.89° C | 61% | 1014 hPa | 0 mm | 0.45 m/s, 294° | 0 W/m² | - |
| 1777483929 | 18.89° C | 60% | 1013.6 hPa | 0 mm | 0 m/s | 0 W/m² | - |
| 1777483629 | 18.89° C | 59% | 1013.9 hPa | 0 mm | 0.45 m/s, 294° | 0 W/m² | - |
| 1777483328 | 19.44° C | 61% | 1013.6 hPa | 0 mm | 1.34 m/s, 299° | 0 W/m² | - |
| 1777483029 | 19.44° C | 63% | 1013.8 hPa | 0 mm | 0.89 m/s, 278° | 0 W/m² | - |
| 1777482729 | 19.44° C | 64% | 1013.7 hPa | 0 mm | 0.89 m/s, 283° | 0 W/m² | - |
| 1777482429 | 19.44° C | 63% | 1013.6 hPa | 0 mm | 2.24 m/s, 268° | 0 W/m² | - |
| 1777482128 | 19.44° C | 61% | 1013.7 hPa | 0 mm | 1.34 m/s, 274° | 0 W/m² | - |
| 1777481828 | 19.44° C | 60% | 1013.5 hPa | 0 mm | 2.68 m/s, 280° | 0 W/m² | - |
| 1777481535 | 20° C | 59% | 1013.7 hPa | 0 mm | 2.24 m/s, 271° | 0 W/m² | - |
| 1777481229 | 20° C | 60% | 1013.3 hPa | 0 mm | 1.79 m/s, 246° | 0 W/m² | - |
| 1777480929 | 20° C | 59% | 1013.5 hPa | 0 mm | 0.89 m/s, 272° | 1 W/m² | - |
* Rain latest hour (hover to see other rain measurements)
** Current wind speed in m/s (hover to see current wind gust speed)